sensor_id;sensor_type;location;lat;lon;timestamp;pressure;altitude;pressure_sealevel;temperature;humidity
8451;BME280;4262;50.980;13.892;2023-04-22T04:01:57;50275.16;;;-142.97;31.33
8451;BME280;4262;50.980;13.892;2023-04-22T04:04:25;50275.16;;;-142.97;31.42
8451;BME280;4262;50.980;13.892;2023-04-22T04:06:56;50277.09;;;-142.97;31.18
8451;BME280;4262;50.980;13.892;2023-04-22T04:09:25;50298.53;;;-142.97;31.07
8451;BME280;4262;50.980;13.892;2023-04-22T04:11:52;50302.44;;;-142.97;31.65
8451;BME280;4262;50.980;13.892;2023-04-22T04:14:20;50306.34;;;-142.97;32.79
8451;BME280;4262;50.980;13.892;2023-04-22T04:16:49;50312.19;;;-142.97;32.95
8451;BME280;4262;50.980;13.892;2023-04-22T04:19:31;50308.28;;;-142.97;32.08
8451;BME280;4262;50.980;13.892;2023-04-22T04:21:58;50286.84;;;-142.97;31.33
8451;BME280;4262;50.980;13.892;2023-04-22T04:24:27;50273.19;;;-142.97;31.51
8451;BME280;4262;50.980;13.892;2023-04-22T04:27:00;50318.03;;;-142.97;31.08
8451;BME280;4262;50.980;13.892;2023-04-22T04:29:36;50290.75;;;-142.97;31.00
8451;BME280;4262;50.980;13.892;2023-04-22T04:32:10;50279.03;;;-142.97;31.24
8451;BME280;4262;50.980;13.892;2023-04-22T04:34:38;50312.19;;;-142.97;31.19
8451;BME280;4262;50.980;13.892;2023-04-22T04:37:07;50304.38;;;-142.97;30.78
8451;BME280;4262;50.980;13.892;2023-04-22T04:40:02;50292.69;;;-142.97;30.79
8451;BME280;4262;50.980;13.892;2023-04-22T04:42:57;50267.34;;;-142.97;30.64
8451;BME280;4262;50.980;13.892;2023-04-22T04:45:33;50329.72;;;-142.97;31.40
8451;BME280;4262;50.980;13.892;2023-04-22T04:48:01;50310.25;;;-142.97;31.68
8451;BME280;4262;50.980;13.892;2023-04-22T04:50:35;50302.44;;;-142.97;30.73
8451;BME280;4262;50.980;13.892;2023-04-22T04:53:02;50294.63;;;-142.97;30.36
8451;BME280;4262;50.980;13.892;2023-04-22T04:55:36;50316.09;;;-142.97;31.19
8451;BME280;4262;50.980;13.892;2023-04-22T04:58:09;50312.19;;;-142.97;30.69
8451;BME280;4262;50.980;13.892;2023-04-22T05:00:38;50298.53;;;-142.97;30.18
8451;BME280;4262;50.980;13.892;2023-04-22T05:03:05;50259.56;;;-142.97;29.67
8451;BME280;4262;50.980;13.892;2023-04-22T05:05:32;50314.13;;;-142.97;29.67
8451;BME280;4262;50.980;13.892;2023-04-22T05:08:00;50275.16;;;-142.97;29.75
8451;BME280;4262;50.980;13.892;2023-04-22T05:10:30;50257.59;;;-142.97;29.59
8451;BME280;4262;50.980;13.892;2023-04-22T05:12:56;50261.50;;;-142.97;28.59
8451;BME280;4262;50.980;13.892;2023-04-22T05:15:24;50271.25;;;-142.97;28.54
8451;BME280;4262;50.980;13.892;2023-04-22T05:17:53;50267.34;;;-142.97;28.17
8451;BME280;4262;50.980;13.892;2023-04-22T05:20:20;50282.94;;;-142.97;28.22
8451;BME280;4262;50.980;13.892;2023-04-22T05:22:47;50273.19;;;-142.97;27.94
8451;BME280;4262;50.980;13.892;2023-04-22T05:25:16;50261.50;;;-142.97;27.97
8451;BME280;4262;50.980;13.892;2023-04-22T05:27:52;50238.09;;;-142.97;28.15
8451;BME280;4262;50.980;13.892;2023-04-22T05:30:23;50255.66;;;-142.97;27.22
8451;BME280;4262;50.980;13.892;2023-04-22T05:32:50;50257.59;;;-142.97;27.04
8451;BME280;4262;50.980;13.892;2023-04-22T05:35:17;50269.28;;;-142.97;27.56
8451;BME280;4262;50.980;13.892;2023-04-22T05:37:44;50247.84;;;-142.97;26.99
8451;BME280;4262;50.980;13.892;2023-04-22T05:40:12;50269.28;;;-142.97;27.08
8451;BME280;4262;50.980;13.892;2023-04-22T05:42:41;50226.41;;;-142.97;27.08
8451;BME280;4262;50.980;13.892;2023-04-22T05:45:08;50271.25;;;-142.97;26.69
8451;BME280;4262;50.980;13.892;2023-04-22T05:47:36;50249.81;;;-142.97;26.12
8451;BME280;4262;50.980;13.892;2023-04-22T05:50:06;50240.06;;;-142.97;26.21
8451;BME280;4262;50.980;13.892;2023-04-22T05:52:40;50232.25;;;-142.97;26.19
8451;BME280;4262;50.980;13.892;2023-04-22T05:55:13;50224.47;;;-142.97;25.78
8451;BME280;4262;50.980;13.892;2023-04-22T05:57:41;50236.16;;;-142.97;25.23
8451;BME280;4262;50.980;13.892;2023-04-22T06:00:30;50206.91;;;-142.97;24.67
8451;BME280;4262;50.980;13.892;2023-04-22T06:03:13;50208.84;;;-142.97;25.01
8451;BME280;4262;50.980;13.892;2023-04-22T06:05:40;50257.59;;;-142.97;24.84
8451;BME280;4262;50.980;13.892;2023-04-22T06:08:08;50228.34;;;-142.97;24.60
8451;BME280;4262;50.980;13.892;2023-04-22T06:10:37;50199.13;;;-142.97;24.58
8451;BME280;4262;50.980;13.892;2023-04-22T06:13:05;50173.75;;;-142.97;24.52
8451;BME280;4262;50.980;13.892;2023-04-22T06:15:32;50218.59;;;-142.97;24.91
8451;BME280;4262;50.980;13.892;2023-04-22T06:18:00;50193.25;;;-142.97;24.39
8451;BME280;4262;50.980;13.892;2023-04-22T06:20:27;50193.25;;;-142.97;24.21
8451;BME280;4262;50.980;13.892;2023-04-22T06:22:53;50181.56;;;-142.97;23.57
8451;BME280;4262;50.980;13.892;2023-04-22T06:25:20;50187.41;;;-142.97;24.12
8451;BME280;4262;50.980;13.892;2023-04-22T06:27:48;50169.88;;;-142.97;24.07
8451;BME280;4262;50.980;13.892;2023-04-22T06:30:20;50191.31;;;-142.97;23.80
8451;BME280;4262;50.980;13.892;2023-04-22T06:32:48;50183.50;;;-142.97;23.67
8451;BME280;4262;50.980;13.892;2023-04-22T06:35:15;50167.91;;;-142.97;24.24
8451;BME280;4262;50.980;13.892;2023-04-22T06:37:43;50193.25;;;-142.97;23.88
8451;BME280;4262;50.980;13.892;2023-04-22T06:40:13;50171.81;;;-142.97;23.86
8451;BME280;4262;50.980;13.892;2023-04-22T06:42:46;50185.47;;;-142.97;23.93
8451;BME280;4262;50.980;13.892;2023-04-22T06:45:37;50177.66;;;-142.97;23.44
8451;BME280;4262;50.980;13.892;2023-04-22T06:48:22;50154.28;;;-142.97;23.43
8451;BME280;4262;50.980;13.892;2023-04-22T06:51:08;50167.91;;;-142.97;23.54
8451;BME280;4262;50.980;13.892;2023-04-22T06:53:34;50165.97;;;-142.97;23.39
8451;BME280;4262;50.980;13.892;2023-04-22T06:56:02;50177.66;;;-142.97;23.54
8451;BME280;4262;50.980;13.892;2023-04-22T06:58:28;50179.63;;;-142.97;23.41
8451;BME280;4262;50.980;13.892;2023-04-22T07:00:57;50154.28;;;-142.97;23.22
8451;BME280;4262;50.980;13.892;2023-04-22T07:03:23;50164.03;;;-142.97;22.84
8451;BME280;4262;50.980;13.892;2023-04-22T07:05:59;50156.22;;;-142.97;22.98
8451;BME280;4262;50.980;13.892;2023-04-22T07:08:28;50148.41;;;-142.97;22.98
8451;BME280;4262;50.980;13.892;2023-04-22T07:10:55;50148.41;;;-142.97;23.31
8451;BME280;4262;50.980;13.892;2023-04-22T07:13:30;50146.47;;;-142.97;22.67
8451;BME280;4262;50.980;13.892;2023-04-22T07:16:00;50138.69;;;-142.97;22.92
8451;BME280;4262;50.980;13.892;2023-04-22T07:18:27;50148.41;;;-142.97;22.82
8451;BME280;4262;50.980;13.892;2023-04-22T07:20:54;50146.47;;;-142.97;22.71
8451;BME280;4262;50.980;13.892;2023-04-22T07:23:21;50136.72;;;-142.97;22.61
8451;BME280;4262;50.980;13.892;2023-04-22T07:25:48;50113.34;;;-142.97;22.96
8451;BME280;4262;50.980;13.892;2023-04-22T07:28:14;50125.03;;;-142.97;22.83
8451;BME280;4262;50.980;13.892;2023-04-22T07:30:41;50134.78;;;-142.97;22.79
8451;BME280;4262;50.980;13.892;2023-04-22T07:33:09;50123.06;;;-142.97;22.84
8451;BME280;4262;50.980;13.892;2023-04-22T07:35:36;50119.19;;;-142.97;22.93
8451;BME280;4262;50.980;13.892;2023-04-22T07:38:02;50123.06;;;-142.97;22.23
8451;BME280;4262;50.980;13.892;2023-04-22T07:40:30;50140.63;;;-142.97;22.19
8451;BME280;4262;50.980;13.892;2023-04-22T07:42:57;50134.78;;;-142.97;21.82
8451;BME280;4262;50.980;13.892;2023-04-22T07:45:24;50091.88;;;-142.97;21.69
8451;BME280;4262;50.980;13.892;2023-04-22T07:47:52;50130.88;;;-142.97;22.00
8451;BME280;4262;50.980;13.892;2023-04-22T07:50:21;50107.47;;;-142.97;22.44
8451;BME280;4262;50.980;13.892;2023-04-22T07:52:48;50123.06;;;-142.97;21.58
8451;BME280;4262;50.980;13.892;2023-04-22T07:55:15;50105.53;;;-142.97;21.65
8451;BME280;4262;50.980;13.892;2023-04-22T07:57:42;50101.63;;;-142.97;21.72
8451;BME280;4262;50.980;13.892;2023-04-22T08:00:09;50117.22;;;-142.97;21.20
8451;BME280;4262;50.980;13.892;2023-04-22T08:02:39;50099.69;;;-142.97;21.03
8451;BME280;4262;50.980;13.892;2023-04-22T08:05:06;50099.69;;;-142.97;21.63
8451;BME280;4262;50.980;13.892;2023-04-22T08:07:35;50123.06;;;-142.97;21.40
8451;BME280;4262;50.980;13.892;2023-04-22T08:10:02;50089.94;;;-142.97;21.28
8451;BME280;4262;50.980;13.892;2023-04-22T08:12:29;50084.09;;;-142.97;21.22
8451;BME280;4262;50.980;13.892;2023-04-22T08:14:55;50119.19;;;-142.97;20.67
8451;BME280;4262;50.980;13.892;2023-04-22T08:17:22;50115.28;;;-142.97;20.98
8451;BME280;4262;50.980;13.892;2023-04-22T08:19:49;50103.59;;;-142.97;21.13
8451;BME280;4262;50.980;13.892;2023-04-22T08:22:15;50091.88;;;-142.97;20.85
8451;BME280;4262;50.980;13.892;2023-04-22T08:24:44;50109.44;;;-142.97;20.63
8451;BME280;4262;50.980;13.892;2023-04-22T08:27:11;50078.25;;;-142.97;20.35
8451;BME280;4262;50.980;13.892;2023-04-22T08:29:37;50086.03;;;-142.97;20.45
8451;BME280;4262;50.980;13.892;2023-04-22T08:32:03;50068.50;;;-142.97;20.38
8451;BME280;4262;50.980;13.892;2023-04-22T08:34:31;50109.44;;;-142.97;20.53
8451;BME280;4262;50.980;13.892;2023-04-22T08:36:57;50111.38;;;-142.97;20.53
8451;BME280;4262;50.980;13.892;2023-04-22T08:39:26;50086.03;;;-142.97;20.29
8451;BME280;4262;50.980;13.892;2023-04-22T08:41:54;50089.94;;;-142.97;20.68
8451;BME280;4262;50.980;13.892;2023-04-22T08:44:23;50095.78;;;-142.97;20.41
8451;BME280;4262;50.980;13.892;2023-04-22T08:46:50;50076.28;;;-142.97;20.01
8451;BME280;4262;50.980;13.892;2023-04-22T08:49:18;50086.03;;;-142.97;20.59
8451;BME280;4262;50.980;13.892;2023-04-22T08:51:44;50089.94;;;-142.97;20.58
8451;BME280;4262;50.980;13.892;2023-04-22T08:54:11;50091.88;;;-142.97;20.11
8451;BME280;4262;50.980;13.892;2023-04-22T08:56:40;50066.53;;;-142.97;19.93
8451;BME280;4262;50.980;13.892;2023-04-22T08:59:09;50039.25;;;-142.97;20.16
8451;BME280;4262;50.980;13.892;2023-04-22T09:01:37;50103.59;;;-142.97;20.18
8451;BME280;4262;50.980;13.892;2023-04-22T09:04:05;50074.34;;;-142.97;20.27
8451;BME280;4262;50.980;13.892;2023-04-22T09:06:37;50080.19;;;-142.97;20.33
8451;BME280;4262;50.980;13.892;2023-04-22T09:09:04;50080.19;;;-142.97;20.19
8451;BME280;4262;50.980;13.892;2023-04-22T09:11:32;50056.78;;;-142.97;19.89
8451;BME280;4262;50.980;13.892;2023-04-22T09:13:59;50068.50;;;-142.97;19.88
8451;BME280;4262;50.980;13.892;2023-04-22T09:16:30;50070.44;;;-142.97;19.94
8451;BME280;4262;50.980;13.892;2023-04-22T09:18:56;50076.28;;;-142.97;19.94
8451;BME280;4262;50.980;13.892;2023-04-22T09:21:24;50056.78;;;-142.97;19.76
8451;BME280;4262;50.980;13.892;2023-04-22T09:23:53;50060.69;;;-142.97;19.61
8451;BME280;4262;50.980;13.892;2023-04-22T09:26:22;50086.03;;;-142.97;19.90
8451;BME280;4262;50.980;13.892;2023-04-22T09:28:50;50056.78;;;-142.97;19.80
8451;BME280;4262;50.980;13.892;2023-04-22T09:31:17;50064.59;;;-142.97;19.72
8451;BME280;4262;50.980;13.892;2023-04-22T09:33:51;50066.53;;;-142.97;19.93
8451;BME280;4262;50.980;13.892;2023-04-22T09:36:21;50064.59;;;-142.97;19.58
8451;BME280;4262;50.980;13.892;2023-04-22T09:38:52;50062.66;;;-142.97;19.48
8451;BME280;4262;50.980;13.892;2023-04-22T09:41:25;50058.75;;;-142.97;19.65
8451;BME280;4262;50.980;13.892;2023-04-22T09:43:54;50029.50;;;-142.97;19.07
8451;BME280;4262;50.980;13.892;2023-04-22T09:46:21;50049.00;;;-142.97;19.67
8451;BME280;4262;50.980;13.892;2023-04-22T09:48:50;50045.09;;;-142.97;19.57
8451;BME280;4262;50.980;13.892;2023-04-22T09:51:18;50062.66;;;-142.97;19.92
8451;BME280;4262;50.980;13.892;2023-04-22T09:53:56;50049.00;;;-142.97;20.02
8451;BME280;4262;50.980;13.892;2023-04-22T09:56:39;50021.69;;;-142.97;19.55
8451;BME280;4262;50.980;13.892;2023-04-22T09:59:06;50068.50;;;-142.97;19.36
8451;BME280;4262;50.980;13.892;2023-04-22T10:01:37;50052.91;;;-142.97;19.47
8451;BME280;4262;50.980;13.892;2023-04-22T10:04:07;50058.75;;;-142.97;19.84
8451;BME280;4262;50.980;13.892;2023-04-22T10:06:34;50027.56;;;-142.97;19.36
8451;BME280;4262;50.980;13.892;2023-04-22T10:09:02;50025.59;;;-142.97;19.23
8451;BME280;4262;50.980;13.892;2023-04-22T10:11:29;50049.00;;;-142.97;19.31
8451;BME280;4262;50.980;13.892;2023-04-22T10:13:56;50037.31;;;-142.97;19.41
8451;BME280;4262;50.980;13.892;2023-04-22T10:16:24;50035.34;;;-142.97;19.24
8451;BME280;4262;50.980;13.892;2023-04-22T10:18:53;50066.53;;;-142.97;19.53
8451;BME280;4262;50.980;13.892;2023-04-22T10:21:22;50043.16;;;-142.97;19.36
8451;BME280;4262;50.980;13.892;2023-04-22T10:23:51;50054.84;;;-142.97;19.46
8451;BME280;4262;50.980;13.892;2023-04-22T10:26:37;50050.94;;;-142.97;19.51
8451;BME280;4262;50.980;13.892;2023-04-22T10:29:04;50019.75;;;-142.97;19.17
8451;BME280;4262;50.980;13.892;2023-04-22T10:31:32;50041.19;;;-142.97;19.47
8451;BME280;4262;50.980;13.892;2023-04-22T10:34:08;50049.00;;;-142.97;18.96
8451;BME280;4262;50.980;13.892;2023-04-22T10:39:31;50037.31;;;-142.97;19.40
8451;BME280;4262;50.980;13.892;2023-04-22T10:42:07;50039.25;;;-142.97;19.33
8451;BME280;4262;50.980;13.892;2023-04-22T10:44:48;50021.69;;;-142.97;19.63
8451;BME280;4262;50.980;13.892;2023-04-22T10:47:26;50023.66;;;-142.97;19.60
8451;BME280;4262;50.980;13.892;2023-04-22T10:50:11;50037.31;;;-142.97;20.05
8451;BME280;4262;50.980;13.892;2023-04-22T10:52:39;50041.19;;;-142.97;19.56
8451;BME280;4262;50.980;13.892;2023-04-22T10:55:08;50013.91;;;-142.97;19.77
8451;BME280;4262;50.980;13.892;2023-04-22T10:57:37;50041.19;;;-142.97;19.60
8451;BME280;4262;50.980;13.892;2023-04-22T11:00:18;50045.09;;;-142.97;19.67
8451;BME280;4262;50.980;13.892;2023-04-22T11:02:50;50041.19;;;-142.97;19.61
8451;BME280;4262;50.980;13.892;2023-04-22T11:05:18;50041.19;;;-142.97;19.43
8451;BME280;4262;50.980;13.892;2023-04-22T11:07:47;50049.00;;;-142.97;19.84
8451;BME280;4262;50.980;13.892;2023-04-22T11:10:48;50045.09;;;-142.97;20.00
8451;BME280;4262;50.980;13.892;2023-04-22T11:13:16;50035.34;;;-142.97;19.26
8451;BME280;4262;50.980;13.892;2023-04-22T11:15:45;50039.25;;;-142.97;19.05
8451;BME280;4262;50.980;13.892;2023-04-22T11:18:16;50033.41;;;-142.97;19.21
8451;BME280;4262;50.980;13.892;2023-04-22T11:20:45;50029.50;;;-142.97;19.14
8451;BME280;4262;50.980;13.892;2023-04-22T11:23:16;50045.09;;;-142.97;19.26
8451;BME280;4262;50.980;13.892;2023-04-22T11:25:43;50054.84;;;-142.97;19.09
8451;BME280;4262;50.980;13.892;2023-04-22T11:28:11;50029.50;;;-142.97;19.38
8451;BME280;4262;50.980;13.892;2023-04-22T11:30:37;50056.78;;;-142.97;19.76
8451;BME280;4262;50.980;13.892;2023-04-22T11:33:04;50060.69;;;-142.97;19.99
8451;BME280;4262;50.980;13.892;2023-04-22T11:35:32;50021.69;;;-142.97;19.76
8451;BME280;4262;50.980;13.892;2023-04-22T11:38:01;50023.66;;;-142.97;19.67
8451;BME280;4262;50.980;13.892;2023-04-22T11:40:31;50047.03;;;-142.97;19.46
8451;BME280;4262;50.980;13.892;2023-04-22T11:43:00;50043.16;;;-142.97;19.53
8451;BME280;4262;50.980;13.892;2023-04-22T11:45:29;50052.91;;;-142.97;19.58
8451;BME280;4262;50.980;13.892;2023-04-22T11:47:57;50050.94;;;-142.97;19.58
8451;BME280;4262;50.980;13.892;2023-04-22T11:50:27;50049.00;;;-142.97;19.94
8451;BME280;4262;50.980;13.892;2023-04-22T11:52:55;50052.91;;;-142.97;19.59
8451;BME280;4262;50.980;13.892;2023-04-22T11:55:24;50056.78;;;-142.97;19.55
8451;BME280;4262;50.980;13.892;2023-04-22T11:57:54;50060.69;;;-142.97;19.86
8451;BME280;4262;50.980;13.892;2023-04-22T12:00:23;50045.09;;;-142.97;19.65
8451;BME280;4262;50.980;13.892;2023-04-22T12:03:01;50045.09;;;-142.97;19.63
8451;BME280;4262;50.980;13.892;2023-04-22T12:05:32;50052.91;;;-142.97;19.87
8451;BME280;4262;50.980;13.892;2023-04-22T12:08:00;50068.50;;;-142.97;19.86
8451;BME280;4262;50.980;13.892;2023-04-22T12:10:50;50041.19;;;-142.97;19.51
8451;BME280;4262;50.980;13.892;2023-04-22T12:13:19;50045.09;;;-142.97;19.55
8451;BME280;4262;50.980;13.892;2023-04-22T12:15:46;50064.59;;;-142.97;19.54
8451;BME280;4262;50.980;13.892;2023-04-22T12:18:27;50023.66;;;-142.97;19.07
8451;BME280;4262;50.980;13.892;2023-04-22T12:20:58;50056.78;;;-142.97;19.38
8451;BME280;4262;50.980;13.892;2023-04-22T12:23:25;50060.69;;;-142.97;19.33
8451;BME280;4262;50.980;13.892;2023-04-22T12:25:53;50049.00;;;-142.97;19.33
8451;BME280;4262;50.980;13.892;2023-04-22T12:28:20;50039.25;;;-142.97;19.46
8451;BME280;4262;50.980;13.892;2023-04-22T12:30:46;50039.25;;;-142.97;19.26
8451;BME280;4262;50.980;13.892;2023-04-22T12:33:13;50052.91;;;-142.97;19.41
8451;BME280;4262;50.980;13.892;2023-04-22T12:35:41;50064.59;;;-142.97;19.36
8451;BME280;4262;50.980;13.892;2023-04-22T12:38:08;50041.19;;;-142.97;19.65
8451;BME280;4262;50.980;13.892;2023-04-22T12:40:36;50107.47;;;-142.97;19.51
8451;BME280;4262;50.980;13.892;2023-04-22T12:43:03;50060.69;;;-142.97;19.64
8451;BME280;4262;50.980;13.892;2023-04-22T12:45:30;50088.00;;;-142.97;19.95
8451;BME280;4262;50.980;13.892;2023-04-22T12:47:56;50056.78;;;-142.97;19.45
8451;BME280;4262;50.980;13.892;2023-04-22T12:50:23;50052.91;;;-142.97;19.57
8451;BME280;4262;50.980;13.892;2023-04-22T12:52:51;50070.44;;;-142.97;19.64
8451;BME280;4262;50.980;13.892;2023-04-22T12:55:19;50052.91;;;-142.97;19.53
8451;BME280;4262;50.980;13.892;2023-04-22T12:57:47;50086.03;;;-142.97;19.14
8451;BME280;4262;50.980;13.892;2023-04-22T13:00:15;50054.84;;;-142.97;19.27
8451;BME280;4262;50.980;13.892;2023-04-22T13:02:43;50076.28;;;-142.97;19.19
8451;BME280;4262;50.980;13.892;2023-04-22T13:05:11;50056.78;;;-142.97;19.77
8451;BME280;4262;50.980;13.892;2023-04-22T13:07:39;50078.25;;;-142.97;19.60
8451;BME280;4262;50.980;13.892;2023-04-22T13:10:10;50054.84;;;-142.97;19.85
8451;BME280;4262;50.980;13.892;2023-04-22T13:12:38;50088.00;;;-142.97;20.38
8451;BME280;4262;50.980;13.892;2023-04-22T13:15:05;50111.38;;;-142.97;20.35
8451;BME280;4262;50.980;13.892;2023-04-22T13:17:33;50078.25;;;-142.97;20.55
8451;BME280;4262;50.980;13.892;2023-04-22T13:20:00;50082.13;;;-142.97;20.11
8451;BME280;4262;50.980;13.892;2023-04-22T13:22:27;50095.78;;;-142.97;19.97
8451;BME280;4262;50.980;13.892;2023-04-22T13:24:53;50101.63;;;-142.97;20.31
8451;BME280;4262;50.980;13.892;2023-04-22T13:27:22;50084.09;;;-142.97;19.88
8451;BME280;4262;50.980;13.892;2023-04-22T13:29:48;50093.84;;;-142.97;20.35
8451;BME280;4262;50.980;13.892;2023-04-22T13:32:17;50095.78;;;-142.97;20.11
8451;BME280;4262;50.980;13.892;2023-04-22T13:34:44;50095.78;;;-142.97;19.85
8451;BME280;4262;50.980;13.892;2023-04-22T13:37:12;50089.94;;;-142.97;19.66
8451;BME280;4262;50.980;13.892;2023-04-22T13:39:40;50091.88;;;-142.97;19.75
8451;BME280;4262;50.980;13.892;2023-04-22T13:42:07;50084.09;;;-142.97;20.06
8451;BME280;4262;50.980;13.892;2023-04-22T13:44:35;50088.00;;;-142.97;19.86
8451;BME280;4262;50.980;13.892;2023-04-22T13:47:02;50099.69;;;-142.97;20.01
8451;BME280;4262;50.980;13.892;2023-04-22T13:49:28;50113.34;;;-142.97;20.27
8451;BME280;4262;50.980;13.892;2023-04-22T13:51:55;50128.94;;;-142.97;20.30
8451;BME280;4262;50.980;13.892;2023-04-22T13:54:22;50132.81;;;-142.97;20.47
8451;BME280;4262;50.980;13.892;2023-04-22T13:56:50;50089.94;;;-142.97;20.47
8451;BME280;4262;50.980;13.892;2023-04-22T13:59:17;50132.81;;;-142.97;20.48
8451;BME280;4262;50.980;13.892;2023-04-22T14:01:45;50146.47;;;-142.97;20.42
8451;BME280;4262;50.980;13.892;2023-04-22T14:04:11;50162.06;;;-142.97;20.34
8451;BME280;4262;50.980;13.892;2023-04-22T14:06:38;50164.03;;;-142.97;20.30
8451;BME280;4262;50.980;13.892;2023-04-22T14:09:06;50203.00;;;-142.97;20.28
8451;BME280;4262;50.980;13.892;2023-04-22T14:11:35;50187.41;;;-142.97;20.28
8451;BME280;4262;50.980;13.892;2023-04-22T14:14:02;50164.03;;;-142.97;20.30
8451;BME280;4262;50.980;13.892;2023-04-22T14:16:29;50179.63;;;-142.97;20.63
8451;BME280;4262;50.980;13.892;2023-04-22T14:18:58;50179.63;;;-142.97;20.25
8451;BME280;4262;50.980;13.892;2023-04-22T14:21:28;50204.97;;;-142.97;20.19
8451;BME280;4262;50.980;13.892;2023-04-22T14:23:55;50203.00;;;-142.97;20.55
8451;BME280;4262;50.980;13.892;2023-04-22T14:26:22;50183.50;;;-142.97;20.43
8451;BME280;4262;50.980;13.892;2023-04-22T14:28:49;50197.16;;;-142.97;20.32
8451;BME280;4262;50.980;13.892;2023-04-22T14:31:17;50185.47;;;-142.97;20.60
8451;BME280;4262;50.980;13.892;2023-04-22T14:33:46;50204.97;;;-142.97;20.33
8451;BME280;4262;50.980;13.892;2023-04-22T14:36:13;50169.88;;;-142.97;20.29
8451;BME280;4262;50.980;13.892;2023-04-22T14:38:41;50230.31;;;-142.97;20.69
8451;BME280;4262;50.980;13.892;2023-04-22T14:41:08;50226.41;;;-142.97;20.65
8451;BME280;4262;50.980;13.892;2023-04-22T14:43:35;50204.97;;;-142.97;20.90
8451;BME280;4262;50.980;13.892;2023-04-22T14:46:02;50193.25;;;-142.97;20.64
8451;BME280;4262;50.980;13.892;2023-04-22T14:48:30;50173.75;;;-142.97;20.19
8451;BME280;4262;50.980;13.892;2023-04-22T14:51:00;50201.06;;;-142.97;20.40
8451;BME280;4262;50.980;13.892;2023-04-22T14:53:28;50206.91;;;-142.97;20.06
8451;BME280;4262;50.980;13.892;2023-04-22T14:55:55;50177.66;;;-142.97;20.21
8451;BME280;4262;50.980;13.892;2023-04-22T14:58:22;50189.38;;;-142.97;20.98
8451;BME280;4262;50.980;13.892;2023-04-22T15:00:49;50197.16;;;-142.97;20.40
8451;BME280;4262;50.980;13.892;2023-04-22T15:03:15;50193.25;;;-142.97;20.59
8451;BME280;4262;50.980;13.892;2023-04-22T15:05:42;50183.50;;;-142.97;20.50
8451;BME280;4262;50.980;13.892;2023-04-22T15:08:09;50197.16;;;-142.97;20.27
8451;BME280;4262;50.980;13.892;2023-04-22T15:10:37;50195.22;;;-142.97;20.38
8451;BME280;4262;50.980;13.892;2023-04-22T15:13:04;50199.13;;;-142.97;19.95
8451;BME280;4262;50.980;13.892;2023-04-22T15:15:30;50218.59;;;-142.97;20.23
8451;BME280;4262;50.980;13.892;2023-04-22T15:17:58;50208.84;;;-142.97;21.05
8451;BME280;4262;50.980;13.892;2023-04-22T15:20:25;50232.25;;;-142.97;21.49
8451;BME280;4262;50.980;13.892;2023-04-22T15:22:52;50230.31;;;-142.97;21.27
8451;BME280;4262;50.980;13.892;2023-04-22T15:25:19;50199.13;;;-142.97;20.97
8451;BME280;4262;50.980;13.892;2023-04-22T15:27:47;50189.38;;;-142.97;21.18
8451;BME280;4262;50.980;13.892;2023-04-22T15:30:14;50204.97;;;-142.97;21.32
8451;BME280;4262;50.980;13.892;2023-04-22T15:32:41;50197.16;;;-142.97;21.00
8451;BME280;4262;50.980;13.892;2023-04-22T15:35:07;50195.22;;;-142.97;21.22
8451;BME280;4262;50.980;13.892;2023-04-22T15:37:34;50201.06;;;-142.97;21.07
8451;BME280;4262;50.980;13.892;2023-04-22T15:40:01;50199.13;;;-142.97;21.26
8451;BME280;4262;50.980;13.892;2023-04-22T15:42:32;50206.91;;;-142.97;21.25
8451;BME280;4262;50.980;13.892;2023-04-22T15:45:00;50214.72;;;-142.97;21.35
8451;BME280;4262;50.980;13.892;2023-04-22T15:47:27;50240.06;;;-142.97;21.41
8451;BME280;4262;50.980;13.892;2023-04-22T15:49:54;50222.50;;;-142.97;20.75
8451;BME280;4262;50.980;13.892;2023-04-22T15:52:22;50230.31;;;-142.97;21.21
8451;BME280;4262;50.980;13.892;2023-04-22T15:54:49;50218.59;;;-142.97;21.30
8451;BME280;4262;50.980;13.892;2023-04-22T15:57:15;50199.13;;;-142.97;21.44
8451;BME280;4262;50.980;13.892;2023-04-22T15:59:42;50222.50;;;-142.97;21.29
8451;BME280;4262;50.980;13.892;2023-04-22T16:02:10;50238.09;;;-142.97;21.94
8451;BME280;4262;50.980;13.892;2023-04-22T16:04:37;50195.22;;;-142.97;21.63
8451;BME280;4262;50.980;13.892;2023-04-22T16:07:04;50232.25;;;-142.97;21.96
8451;BME280;4262;50.980;13.892;2023-04-22T16:09:31;50245.91;;;-142.97;21.70
8451;BME280;4262;50.980;13.892;2023-04-22T16:11:59;50222.50;;;-142.97;22.06
8451;BME280;4262;50.980;13.892;2023-04-22T16:14:26;50267.34;;;-142.97;22.04
8451;BME280;4262;50.980;13.892;2023-04-22T16:16:53;50230.31;;;-142.97;21.94
8451;BME280;4262;50.980;13.892;2023-04-22T16:19:21;50228.34;;;-142.97;21.76
8451;BME280;4262;50.980;13.892;2023-04-22T16:21:49;50204.97;;;-142.97;21.77
8451;BME280;4262;50.980;13.892;2023-04-22T16:24:15;50220.56;;;-142.97;22.08
8451;BME280;4262;50.980;13.892;2023-04-22T16:26:42;50238.09;;;-142.97;21.83
8451;BME280;4262;50.980;13.892;2023-04-22T16:29:09;50224.47;;;-142.97;21.99
8451;BME280;4262;50.980;13.892;2023-04-22T16:31:36;50243.94;;;-142.97;21.94
8451;BME280;4262;50.980;13.892;2023-04-22T16:34:04;50273.19;;;-142.97;21.79
8451;BME280;4262;50.980;13.892;2023-04-22T16:36:32;50230.31;;;-142.97;21.93
8451;BME280;4262;50.980;13.892;2023-04-22T16:38:58;50247.84;;;-142.97;21.92
8451;BME280;4262;50.980;13.892;2023-04-22T16:41:26;50232.25;;;-142.97;21.92
8451;BME280;4262;50.980;13.892;2023-04-22T16:43:52;50240.06;;;-142.97;22.02
8451;BME280;4262;50.980;13.892;2023-04-22T16:46:19;50187.41;;;-142.97;22.01
8451;BME280;4262;50.980;13.892;2023-04-22T16:48:46;50243.94;;;-142.97;22.23
8451;BME280;4262;50.980;13.892;2023-04-22T16:51:13;50247.84;;;-142.97;22.04
8451;BME280;4262;50.980;13.892;2023-04-22T16:53:41;50222.50;;;-142.97;21.93
8451;BME280;4262;50.980;13.892;2023-04-22T16:56:08;50243.94;;;-142.97;22.17
8451;BME280;4262;50.980;13.892;2023-04-22T16:58:34;50226.41;;;-142.97;22.74
8451;BME280;4262;50.980;13.892;2023-04-22T17:01:02;50204.97;;;-142.97;22.39
8451;BME280;4262;50.980;13.892;2023-04-22T17:03:28;50228.34;;;-142.97;22.43